地図

経路データ

SID SEASON NUMBER BASIN SUBBASIN NAME ISO_TIME NATURE LAT LON WMO_WIND WMO_PRES WMO_AGENCY TRACK_TYPE DIST2LAND LANDFALL IFLAG USA_AGENCY USA_ATCF_ID USA_LAT USA_LON USA_RECORD USA_STATUS USA_WIND USA_PRES USA_SSHS USA_R34_NE USA_R34_SE USA_R34_SW USA_R34_NW USA_R50_NE USA_R50_SE USA_R50_SW USA_R50_NW USA_R64_NE USA_R64_SE USA_R64_SW USA_R64_NW USA_POCI USA_ROCI USA_RMW USA_EYE TOKYO_LAT TOKYO_LON TOKYO_GRADE TOKYO_WIND TOKYO_PRES TOKYO_R50_DIR TOKYO_R50_LONG TOKYO_R50_SHORT TOKYO_R30_DIR TOKYO_R30_LONG TOKYO_R30_SHORT TOKYO_LAND CMA_LAT CMA_LON CMA_CAT CMA_WIND CMA_PRES HKO_LAT HKO_LON HKO_CAT HKO_WIND HKO_PRES NEWDELHI_LAT NEWDELHI_LON NEWDELHI_GRADE NEWDELHI_WIND NEWDELHI_PRES NEWDELHI_CI NEWDELHI_DP NEWDELHI_POCI REUNION_LAT REUNION_LON REUNION_TYPE REUNION_WIND REUNION_PRES REUNION_TNUM REUNION_CI REUNION_RMW REUNION_R34_NE REUNION_R34_SE REUNION_R34_SW REUNION_R34_NW REUNION_R50_NE REUNION_R50_SE REUNION_R50_SW REUNION_R50_NW REUNION_R64_NE REUNION_R64_SE REUNION_R64_SW REUNION_R64_NW BOM_LAT BOM_LON BOM_TYPE BOM_WIND BOM_PRES BOM_TNUM BOM_CI BOM_RMW BOM_R34_NE BOM_R34_SE BOM_R34_SW BOM_R34_NW BOM_R50_NE BOM_R50_SE BOM_R50_SW BOM_R50_NW BOM_R64_NE BOM_R64_SE BOM_R64_SW BOM_R64_NW BOM_ROCI BOM_POCI BOM_EYE BOM_POS_METHOD BOM_PRES_METHOD NADI_LAT NADI_LON NADI_CAT NADI_WIND NADI_PRES WELLINGTON_LAT WELLINGTON_LON WELLINGTON_WIND WELLINGTON_PRES DS824_LAT DS824_LON DS824_STAGE DS824_WIND DS824_PRES TD9636_LAT TD9636_LON TD9636_STAGE TD9636_WIND TD9636_PRES TD9635_LAT TD9635_LON TD9635_WIND TD9635_PRES TD9635_ROCI NEUMANN_LAT NEUMANN_LON NEUMANN_CLASS NEUMANN_WIND NEUMANN_PRES MLC_LAT MLC_LON MLC_CLASS MLC_WIND MLC_PRES USA_GUST BOM_GUST BOM_GUST_PER REUNION_GUST REUNION_GUST_PER USA_SEAHGT USA_SEARAD_NE USA_SEARAD_SE USA_SEARAD_SW USA_SEARAD_NW STORM_SPEED STORM_DIR
1933259N11302 1933 57 NA NA NOT_NAMED 1933-09-16 06:00:00 TS 11.3000 -57.9000 30 hurdat_atl main 345 284 O_____________ hurdat_atl AL141933 11.3000 -57.9000 TD 30 -1 13 279
1933259N11302 1933 57 NA NA NOT_NAMED 1933-09-16 09:00:00 TS 11.4003 -58.5499 main 284 216 P_____________ AL141933 11.4003 -58.5499 TD 30 -1 13 279
1933259N11302 1933 57 NA NA NOT_NAMED 1933-09-16 12:00:00 TS 11.5000 -59.2000 30 hurdat_atl main 216 165 O_____________ hurdat_atl AL141933 11.5000 -59.2000 TD 30 -1 13 279
1933259N11302 1933 57 NA NA NOT_NAMED 1933-09-16 15:00:00 TS 11.5999 -59.8500 main 156 124 P_____________ AL141933 11.5999 -59.8500 TD 30 -1 13 279
1933259N11302 1933 57 NA CS NOT_NAMED 1933-09-16 18:00:00 TS 11.7000 -60.5000 30 hurdat_atl main 124 114 O_____________ hurdat_atl AL141933 11.7000 -60.5000 TD 30 -1 13 279
1933259N11302 1933 57 NA CS NOT_NAMED 1933-09-16 21:00:00 TS 11.7924 -61.1501 main 123 123 P_____________ AL141933 11.7924 -61.1501 TD 30 -1 13 279
1933259N11302 1933 57 NA CS NOT_NAMED 1933-09-17 00:00:00 TS 11.9000 -61.8000 30 hurdat_atl main 134 134 O_____________ hurdat_atl AL141933 11.9000 -61.8000 TD 30 -1 13 281
1933259N11302 1933 57 NA CS NOT_NAMED 1933-09-17 03:00:00 TS 12.0348 -62.4426 main 145 145 P_____________ AL141933 12.0348 -62.4426 TD 30 -1 13 283
1933259N11302 1933 57 NA CS NOT_NAMED 1933-09-17 06:00:00 TS 12.2000 -63.1000 30 hurdat_atl main 167 167 O_____________ hurdat_atl AL141933 12.2000 -63.1000 TD 30 -1 14 285
1933259N11302 1933 57 NA CS NOT_NAMED 1933-09-17 09:00:00 TS 12.3923 -63.7851 main 201 201 P_____________ AL141933 12.3923 -63.7851 TD 30 -1 14 286
1933259N11302 1933 57 NA CS NOT_NAMED 1933-09-17 12:00:00 TS 12.6000 -64.5000 30 hurdat_atl main 226 226 O_____________ hurdat_atl AL141933 12.6000 -64.5000 TD 30 -1 15 286
1933259N11302 1933 57 NA CS NOT_NAMED 1933-09-17 15:00:00 TS 12.7998 -65.2351 main 261 254 P_____________ AL141933 12.7998 -65.2351 TD 30 -1 15 285
1933259N11302 1933 57 NA CS NOT_NAMED 1933-09-17 18:00:00 TS 13.0000 -66.0000 30 hurdat_atl main 268 268 O_____________ hurdat_atl AL141933 13.0000 -66.0000 TD 30 -1 16 285
1933259N11302 1933 57 NA CS NOT_NAMED 1933-09-17 21:00:00 TS 13.2072 -66.7851 main 283 259 P_____________ AL141933 13.2072 -66.7851 TD 32 -1 16 284
1933259N11302 1933 57 NA CS NOT_NAMED 1933-09-18 00:00:00 TS 13.4000 -67.6000 35 hurdat_atl main 259 225 O_____________ hurdat_atl AL141933 13.4000 -67.6000 TS 35 0 17 282
1933259N11302 1933 57 NA CS NOT_NAMED 1933-09-18 03:00:00 TS 13.5574 -68.4576 main 226 190 P_____________ AL141933 13.5574 -68.4576 TS 37 0 17 280
1933259N11302 1933 57 NA CS NOT_NAMED 1933-09-18 06:00:00 TS 13.7000 -69.3000 40 hurdat_atl main 190 182 O_____________ hurdat_atl AL141933 13.7000 -69.3000 TS 40 0 16 281
1933259N11302 1933 57 NA CS NOT_NAMED 1933-09-18 09:00:00 TS 13.8498 -70.0801 main 190 190 P_____________ AL141933 13.8498 -70.0801 TS 42 0 15 282
1933259N11302 1933 57 NA CS NOT_NAMED 1933-09-18 12:00:00 TS 14.0000 -70.8000 45 hurdat_atl main 194 187 O_____________ hurdat_atl AL141933 14.0000 -70.8000 TS 45 0 14 283
1933259N11302 1933 57 NA CS NOT_NAMED 1933-09-18 15:00:00 TS 14.1573 -71.4725 main 201 201 P_____________ AL141933 14.1573 -71.4725 TS 47 0 13 283
1933259N11302 1933 57 NA CS NOT_NAMED 1933-09-18 18:00:00 TS 14.3000 -72.1000 50 hurdat_atl main 217 217 O_____________ hurdat_atl AL141933 14.3000 -72.1000 TS 50 0 12 281
1933259N11302 1933 57 NA CS NOT_NAMED 1933-09-18 21:00:00 TS 14.3998 -72.7077 main 247 247 P_____________ AL141933 14.3998 -72.7077 TS 55 0 12 280
1933259N11302 1933 57 NA CS NOT_NAMED 1933-09-19 00:00:00 TS 14.5000 -73.3000 60 hurdat_atl main 283 283 O_____________ hurdat_atl AL141933 14.5000 -73.3000 TS 60 0 12 282
1933259N11302 1933 57 NA CS NOT_NAMED 1933-09-19 03:00:00 TS 14.6498 -73.9000 main 325 325 P_____________ AL141933 14.6498 -73.9000 TS 65 1 12 284
1933259N11302 1933 57 NA CS NOT_NAMED 1933-09-19 06:00:00 TS 14.8000 -74.5000 70 hurdat_atl main 363 355 O_____________ hurdat_atl AL141933 14.8000 -74.5000 HU 70 1 12 282
1933259N11302 1933 57 NA CS NOT_NAMED 1933-09-19 09:00:00 TS 14.8923 -75.1002 main 355 328 P_____________ AL141933 14.8923 -75.1002 HU 75 1 12 280
1933259N11302 1933 57 NA CS NOT_NAMED 1933-09-19 12:00:00 TS 15.0000 -75.7000 80 hurdat_atl main 328 295 O_____________ hurdat_atl AL141933 15.0000 -75.7000 HU 80 1 12 284
1933259N11302 1933 57 NA CS NOT_NAMED 1933-09-19 15:00:00 TS 15.1773 -76.3001 main 295 259 P_____________ AL141933 15.1773 -76.3001 HU 85 2 12 289
1933259N11302 1933 57 NA CS NOT_NAMED 1933-09-19 18:00:00 TS 15.4000 -76.9000 90 hurdat_atl main 259 235 O_____________ hurdat_atl AL141933 15.4000 -76.9000 HU 90 2 12 292
1933259N11302 1933 57 NA CS NOT_NAMED 1933-09-19 21:00:00 TS 15.6348 -77.5002 main 237 218 P_____________ AL141933 15.6348 -77.5002 HU 95 2 13 293
1933259N11302 1933 57 NA CS NOT_NAMED 1933-09-20 00:00:00 TS 15.9000 -78.1000 100 hurdat_atl main 223 212 O_____________ hurdat_atl AL141933 15.9000 -78.1000 HU 100 3 13 296
1933259N11302 1933 57 NA CS NOT_NAMED 1933-09-20 03:00:00 TS 16.1923 -78.7001 main 217 208 P_____________ AL141933 16.1923 -78.7001 HU 105 3 13 298
1933259N11302 1933 57 NA CS NOT_NAMED 1933-09-20 06:00:00 TS 16.5000 -79.3000 110 hurdat_atl main 212 208 O_____________ hurdat_atl AL141933 16.5000 -79.3000 HU 110 3 13 298
1933259N11302 1933 57 NA CS NOT_NAMED 1933-09-20 09:00:00 TS 16.7923 -79.9003 main 223 223 P_____________ AL141933 16.7923 -79.9003 HU 115 4 13 298
1933259N11302 1933 57 NA CS NOT_NAMED 1933-09-20 12:00:00 TS 17.1000 -80.5000 120 hurdat_atl main 254 254 O_____________ hurdat_atl AL141933 17.1000 -80.5000 HU 120 4 13 300
1933259N11302 1933 57 NA CS NOT_NAMED 1933-09-20 15:00:00 TS 17.4499 -81.1075 main 299 296 P_____________ AL141933 17.4499 -81.1075 HU 125 4 13 301
1933259N11302 1933 57 NA CS NOT_NAMED 1933-09-20 18:00:00 TS 17.8000 -81.7000 130 hurdat_atl main 333 327 O_____________ hurdat_atl AL141933 17.8000 -81.7000 HU 130 4 13 301
1933259N11302 1933 57 NA CS NOT_NAMED 1933-09-20 21:00:00 TS 18.1074 -82.2727 main 333 327 P_____________ AL141933 18.1074 -82.2727 HU 135 4 12 300
1933259N11302 1933 57 NA CS NOT_NAMED 1933-09-21 00:00:00 TS 18.4000 -82.8000 140 929 hurdat_atl main 331 304 O_____________ hurdat_atl AL141933 18.4000 -82.8000 HU 140 929 5 11 302
1933259N11302 1933 57 NA CS NOT_NAMED 1933-09-21 03:00:00 TS 18.7073 -83.2652 main 306 281 P_____________ AL141933 18.7073 -83.2652 HU 140 5 10 305
1933259N11302 1933 57 NA CS NOT_NAMED 1933-09-21 06:00:00 TS 19.0000 -83.7000 140 hurdat_atl main 284 271 O_____________ hurdat_atl AL141933 19.0000 -83.7000 HU 140 5 10 304
1933259N11302 1933 57 NA CS NOT_NAMED 1933-09-21 09:00:00 TS 19.2649 -84.1501 main 275 257 P_____________ AL141933 19.2649 -84.1501 HU 137 5 10 300
1933259N11302 1933 57 NA CS NOT_NAMED 1933-09-21 12:00:00 TS 19.5000 -84.6000 135 hurdat_atl main 257 233 O_____________ hurdat_atl AL141933 19.5000 -84.6000 HU 135 4 10 298
1933259N11302 1933 57 NA CS NOT_NAMED 1933-09-21 15:00:00 TS 19.7224 -85.0500 main 224 177 P_____________ AL141933 19.7224 -85.0500 HU 132 4 9 295
1933259N11302 1933 57 NA CS NOT_NAMED 1933-09-21 18:00:00 TS 19.9000 -85.5000 130 hurdat_atl main 177 137 O_____________ hurdat_atl AL141933 19.9000 -85.5000 HU 130 4 9 289
1933259N11302 1933 57 NA CS NOT_NAMED 1933-09-21 21:00:00 TS 20.0149 -85.9502 main 129 94 P_____________ AL141933 20.0149 -85.9502 HU 127 4 9 283
1933259N11302 1933 57 NA CS NOT_NAMED 1933-09-22 00:00:00 TS 20.1000 -86.4000 125 hurdat_atl main 94 61 O_____________ hurdat_atl AL141933 20.1000 -86.4000 HU 125 4 9 282
1933259N11302 1933 57 NA CS NOT_NAMED 1933-09-22 03:00:00 TS 20.1999 -86.8501 main 53 15 P_____________ AL141933 20.1999 -86.8501 HU 122 4 9 283
1933259N11302 1933 57 NA CS NOT_NAMED 1933-09-22 06:00:00 TS 20.3000 -87.3000 120 hurdat_atl main 15 0 O_____________ hurdat_atl AL141933 20.3000 -87.3000 HU 120 4 9 284
1933259N11302 1933 57 NA NA NOT_NAMED 1933-09-22 09:00:00 TS 20.4149 -87.7499 main 0 0 P_____________ AL141933 20.4149 -87.7499 HU 100 3 9 283
1933259N11302 1933 57 NA NA NOT_NAMED 1933-09-22 12:00:00 TS 20.5000 -88.2000 80 hurdat_atl main 0 0 O_____________ hurdat_atl AL141933 20.5000 -88.2000 HU 80 1 8 277
1933259N11302 1933 57 NA NA NOT_NAMED 1933-09-22 15:00:00 TS 20.5149 -88.6501 main 0 0 P_____________ AL141933 20.5149 -88.6501 HU 72 1 8 270
1933259N11302 1933 57 NA NA NOT_NAMED 1933-09-22 18:00:00 TS 20.5000 -89.1000 65 hurdat_atl main 0 0 O_____________ hurdat_atl AL141933 20.5000 -89.1000 HU 65 1 8 268
1933259N11302 1933 57 NA NA NOT_NAMED 1933-09-22 21:00:00 TS 20.4924 -89.5501 main 0 0 P_____________ AL141933 20.4924 -89.5501 HU 57 0 8 270
1933259N11302 1933 57 NA NA NOT_NAMED 1933-09-23 00:00:00 TS 20.5000 -90.0000 50 hurdat_atl main 0 0 O_____________ hurdat_atl AL141933 20.5000 -90.0000 TS 50 0 8 273
1933259N11302 1933 57 NA NA NOT_NAMED 1933-09-23 03:00:00 TS 20.5424 -90.4500 main 0 0 P_____________ AL141933 20.5424 -90.4500 TS 52 0 8 277
1933259N11302 1933 57 NA GM NOT_NAMED 1933-09-23 06:00:00 TS 20.6000 -90.9000 55 hurdat_atl main 43 43 O_____________ hurdat_atl AL141933 20.6000 -90.9000 TS 55 0 8 277
1933259N11302 1933 57 NA GM NOT_NAMED 1933-09-23 09:00:00 TS 20.6424 -91.3501 main 94 94 P_____________ AL141933 20.6424 -91.3501 TS 57 0 8 277
1933259N11302 1933 57 NA GM NOT_NAMED 1933-09-23 12:00:00 TS 20.7000 -91.8000 60 hurdat_atl main 137 137 O_____________ hurdat_atl AL141933 20.7000 -91.8000 TS 60 0 9 280
1933259N11302 1933 57 NA GM NOT_NAMED 1933-09-23 15:00:00 TS 20.7924 -92.2500 main 180 190 P_____________ AL141933 20.7924 -92.2500 TS 65 1 9 283
1933259N11302 1933 57 NA GM NOT_NAMED 1933-09-23 18:00:00 TS 20.9000 -92.7000 70 hurdat_atl main 233 233 O_____________ hurdat_atl AL141933 20.9000 -92.7000 HU 70 1 9 284
1933259N11302 1933 57 NA GM NOT_NAMED 1933-09-23 21:00:00 TS 20.9998 -93.1426 main 271 271 P_____________ AL141933 20.9998 -93.1426 HU 75 1 9 283
1933259N11302 1933 57 NA GM NOT_NAMED 1933-09-24 00:00:00 TS 21.1000 -93.6000 80 hurdat_atl main 295 280 O_____________ hurdat_atl AL141933 21.1000 -93.6000 HU 80 1 9 283
1933259N11302 1933 57 NA GM NOT_NAMED 1933-09-24 03:00:00 TS 21.1999 -94.0926 main 280 244 P_____________ AL141933 21.1999 -94.0926 HU 85 2 10 282
1933259N11302 1933 57 NA GM NOT_NAMED 1933-09-24 06:00:00 TS 21.3000 -94.6000 90 hurdat_atl main 244 213 O_____________ hurdat_atl AL141933 21.3000 -94.6000 HU 90 2 10 282
1933259N11302 1933 57 NA GM NOT_NAMED 1933-09-24 09:00:00 TS 21.3998 -95.0926 main 213 176 P_____________ AL141933 21.3998 -95.0926 HU 92 2 10 282
1933259N11302 1933 57 NA GM NOT_NAMED 1933-09-24 12:00:00 TS 21.5000 -95.6000 95 hurdat_atl main 176 124 O_____________ hurdat_atl AL141933 21.5000 -95.6000 HU 95 2 10 281
1933259N11302 1933 57 NA GM NOT_NAMED 1933-09-24 15:00:00 TS 21.5924 -96.1427 main 124 62 P_____________ AL141933 21.5924 -96.1427 HU 95 2 10 281
1933259N11302 1933 57 NA GM NOT_NAMED 1933-09-24 18:00:00 TS 21.7000 -96.7000 95 960 hurdat_atl main 62 23 O_____________ hurdat_atl AL141933 21.7000 -96.7000 HU 95 960 2 11 282
1933259N11302 1933 57 NA GM NOT_NAMED 1933-09-24 21:00:00 TS 21.8198 -97.2503 main 15 0 P_____________ AL141933 21.8198 -97.2503 HU 95 2 11 286
1933259N11302 1933 57 NA NA NOT_NAMED 1933-09-25 00:00:00 TS 22.0000 -97.8000 95 hurdat_atl main 0 0 O_____________ hurdat_atl AL141933 22.0000 -97.8000 HU 95 2 11 295
1933259N11302 1933 57 NA NA NOT_NAMED 1933-09-25 03:00:00 TS 22.2923 -98.3498 main 0 0 P_____________ AL141933 22.2923 -98.3498 HU 77 1 12 301
1933259N11302 1933 57 NA NA NOT_NAMED 1933-09-25 06:00:00 TS 22.6000 -98.9000 60 hurdat_atl main 0 0 O_____________ hurdat_atl AL141933 22.6000 -98.9000 TS 60 0 12 298
1933259N11302 1933 57 NA NA NOT_NAMED 1933-09-25 09:00:00 TS 22.8279 -99.4500 main 0 0 P_____________ AL141933 22.8279 -99.4500 TS 47 0 11 292
1933259N11302 1933 57 NA NA NOT_NAMED 1933-09-25 12:00:00 TS 23.0000 -100.000 35 hurdat_atl main 0 O_____________ hurdat_atl AL141933 23.0000 -100.000 TS 35 0 11 289

IBTrACS Databaseについて

本データベースは、米国NOAAが公開する1842年以降の世界の熱帯低気圧のベストトラックデータアーカイブInternational Best Track Archive for Climate Stewardship (IBTrACS)を、ウェブで閲覧しやすい形式に変換したものです。

最終更新日:2021-10-08